TDR151 LIME-LDSP
Flight info
| Callsign | TDR151 |
|---|---|
| Flight time | 0h 57m |
| Altitude | 19000 |
| Route | LEGLO L615 ADOSA L612 CHI L614 LABIN/N0436F250 DCT PUL/N0400F190 N606 LOS/N0448F370 DCT MINTU DCT SAL |
| Aircraft | A320/M-SDE3FGHIRWY/LB1 |
Departure
| Time | 2026-04-29 10:10 |
|---|---|
| Airport | Il Caravaggio International Airport (LIME) |
Arrival
| Time | 2026-04-29 11:07 |
|---|---|
| Airport | Split Saint Jerome Airport (LDSP) |
| Time | Latitude | Longitude | Altitude | Speed | Heading |
|---|---|---|---|---|---|
| 2026-04-29 09:35 | 45.66529 | 9.70702 | 791 ft | 0 kts | 195° |
| 2026-04-29 10:01 | 45.66538 | 9.70705 | 787 ft | 4 kts | 195° |
| 2026-04-29 10:02 | 45.66564 | 9.70715 | 787 ft | 4 kts | 194° |
| 2026-04-29 10:02 | 45.66589 | 9.70724 | 787 ft | 4 kts | 179° |
| 2026-04-29 10:02 | 45.66609 | 9.70711 | 787 ft | 4 kts | 117° |
| 2026-04-29 10:02 | 45.66616 | 9.70684 | 787 ft | 0 kts | 105° |
| 2026-04-29 10:05 | 45.66615 | 9.70687 | 787 ft | 2 kts | 105° |
| 2026-04-29 10:06 | 45.66602 | 9.70754 | 787 ft | 8 kts | 106° |
| 2026-04-29 10:06 | 45.66589 | 9.70822 | 787 ft | 7 kts | 105° |
| 2026-04-29 10:06 | 45.66575 | 9.70896 | 787 ft | 7 kts | 105° |
| 2026-04-29 10:06 | 45.66559 | 9.70978 | 787 ft | 10 kts | 107° |
| 2026-04-29 10:07 | 45.66529 | 9.71102 | 787 ft | 17 kts | 109° |
| 2026-04-29 10:07 | 45.66492 | 9.71264 | 787 ft | 16 kts | 106° |
| 2026-04-29 10:07 | 45.66463 | 9.71410 | 787 ft | 14 kts | 105° |
| 2026-04-29 10:07 | 45.66439 | 9.71540 | 787 ft | 13 kts | 102° |
| 2026-04-29 10:08 | 45.66444 | 9.71661 | 787 ft | 15 kts | 75° |
| 2026-04-29 10:08 | 45.66471 | 9.71862 | 787 ft | 23 kts | 96° |
| 2026-04-29 10:08 | 45.66432 | 9.72084 | 787 ft | 23 kts | 105° |
| 2026-04-29 10:08 | 45.66390 | 9.72308 | 787 ft | 24 kts | 104° |
| 2026-04-29 10:09 | 45.66404 | 9.72459 | 787 ft | 13 kts | 4° |
| 2026-04-29 10:09 | 45.66469 | 9.72373 | 787 ft | 19 kts | 293° |
| 2026-04-29 10:09 | 45.66560 | 9.71899 | 787 ft | 84 kts | 285° |
| 2026-04-29 10:09 | 45.66763 | 9.70805 | 787 ft | 142 kts | 285° |
| 2026-04-29 10:10 | 45.67040 | 9.69290 | 1127 ft | 158 kts | 284° |
| 2026-04-29 10:10 | 45.67139 | 9.67735 | 1836 ft | 159 kts | 259° |
| 2026-04-29 10:10 | 45.66681 | 9.66306 | 2418 ft | 160 kts | 226° |
| 2026-04-29 10:10 | 45.65891 | 9.65198 | 3094 ft | 159 kts | 224° |
| 2026-04-29 10:11 | 45.65120 | 9.64063 | 3746 ft | 159 kts | 225° |
| 2026-04-29 10:11 | 45.64326 | 9.62880 | 4178 ft | 176 kts | 224° |
| 2026-04-29 10:11 | 45.63436 | 9.61562 | 4597 ft | 189 kts | 225° |
| 2026-04-29 10:11 | 45.62514 | 9.60191 | 5140 ft | 194 kts | 224° |
| 2026-04-29 10:12 | 45.61580 | 9.58797 | 5797 ft | 196 kts | 226° |
| 2026-04-29 10:12 | 45.60586 | 9.57338 | 6133 ft | 214 kts | 225° |
| 2026-04-29 10:12 | 45.59517 | 9.55815 | 6665 ft | 220 kts | 225° |
| 2026-04-29 10:12 | 45.58233 | 9.54649 | 7197 ft | 224 kts | 193° |
| 2026-04-29 10:13 | 45.56695 | 9.54744 | 7795 ft | 225 kts | 159° |
| 2026-04-29 10:13 | 45.55422 | 9.55999 | 8377 ft | 226 kts | 128° |
| 2026-04-29 10:13 | 45.54812 | 9.58040 | 8958 ft | 228 kts | 96° |
| 2026-04-29 10:13 | 45.55078 | 9.60254 | 9528 ft | 232 kts | 63° |
| 2026-04-29 10:14 | 45.56060 | 9.62046 | 10112 ft | 234 kts | 49° |
| 2026-04-29 10:14 | 45.57149 | 9.63804 | 10632 ft | 237 kts | 48° |
| 2026-04-29 10:14 | 45.58231 | 9.65589 | 11131 ft | 239 kts | 49° |
| 2026-04-29 10:14 | 45.59316 | 9.67406 | 11695 ft | 240 kts | 49° |
| 2026-04-29 10:15 | 45.60399 | 9.69234 | 12225 ft | 243 kts | 49° |
| 2026-04-29 10:15 | 45.61503 | 9.71095 | 12741 ft | 247 kts | 49° |
| 2026-04-29 10:15 | 45.62620 | 9.72964 | 13305 ft | 248 kts | 48° |
| 2026-04-29 10:15 | 45.63751 | 9.74847 | 13845 ft | 251 kts | 49° |
| 2026-04-29 10:16 | 45.64662 | 9.76983 | 14329 ft | 255 kts | 68° |
| 2026-04-29 10:16 | 45.65063 | 9.79505 | 14565 ft | 271 kts | 87° |
| 2026-04-29 10:16 | 45.65064 | 9.82317 | 14678 ft | 294 kts | 90° |
| 2026-04-29 10:16 | 45.65043 | 9.85354 | 14825 ft | 317 kts | 90° |
| 2026-04-29 10:17 | 45.65020 | 9.88614 | 14952 ft | 339 kts | 90° |
| 2026-04-29 10:17 | 45.65000 | 9.92085 | 15078 ft | 360 kts | 90° |
| 2026-04-29 10:17 | 45.64983 | 9.95753 | 15263 ft | 377 kts | 90° |
| 2026-04-29 10:17 | 45.64970 | 9.99542 | 15752 ft | 384 kts | 90° |
| 2026-04-29 10:18 | 45.64957 | 10.03384 | 16303 ft | 389 kts | 90° |
| 2026-04-29 10:18 | 45.64941 | 10.07265 | 16867 ft | 393 kts | 90° |
| 2026-04-29 10:18 | 45.64922 | 10.11192 | 17439 ft | 397 kts | 90° |
| 2026-04-29 10:18 | 45.64906 | 10.15157 | 18010 ft | 402 kts | 90° |
| 2026-04-29 10:19 | 45.64899 | 10.19172 | 18554 ft | 406 kts | 90° |
| 2026-04-29 10:19 | 45.64897 | 10.23222 | 19045 ft | 410 kts | 90° |
| 2026-04-29 10:19 | 45.64895 | 10.27317 | 19534 ft | 414 kts | 90° |
| 2026-04-29 10:19 | 45.64886 | 10.31447 | 20045 ft | 417 kts | 90° |
| 2026-04-29 10:20 | 45.64872 | 10.35612 | 20565 ft | 421 kts | 90° |
| 2026-04-29 10:20 | 45.64855 | 10.39809 | 21062 ft | 424 kts | 90° |
| 2026-04-29 10:20 | 45.64835 | 10.44034 | 21555 ft | 427 kts | 90° |
| 2026-04-29 10:20 | 45.64815 | 10.48298 | 22044 ft | 430 kts | 90° |
| 2026-04-29 10:21 | 45.64798 | 10.52586 | 22505 ft | 433 kts | 90° |
| 2026-04-29 10:21 | 45.64779 | 10.56853 | 22950 ft | 437 kts | 90° |
| 2026-04-29 10:21 | 45.64755 | 10.61264 | 23408 ft | 440 kts | 90° |
| 2026-04-29 10:21 | 45.64733 | 10.65598 | 23774 ft | 444 kts | 90° |
| 2026-04-29 10:22 | 45.64708 | 10.70020 | 24113 ft | 447 kts | 90° |
| 2026-04-29 10:22 | 45.64675 | 10.74528 | 24476 ft | 449 kts | 90° |
| 2026-04-29 10:22 | 45.64637 | 10.79005 | 24844 ft | 451 kts | 90° |
| 2026-04-29 10:22 | 45.64599 | 10.83500 | 25191 ft | 453 kts | 90° |
| 2026-04-29 10:23 | 45.64561 | 10.88018 | 25539 ft | 456 kts | 90° |
| 2026-04-29 10:23 | 45.64525 | 10.92493 | 25881 ft | 458 kts | 90° |
| 2026-04-29 10:23 | 45.64393 | 10.97109 | 26215 ft | 461 kts | 96° |
| 2026-04-29 10:23 | 45.63792 | 11.01620 | 26538 ft | 464 kts | 105° |
| 2026-04-29 10:24 | 45.62715 | 11.05910 | 26791 ft | 467 kts | 115° |
| 2026-04-29 10:24 | 45.61154 | 11.09980 | 27093 ft | 468 kts | 124° |
| 2026-04-29 10:24 | 45.59384 | 11.13893 | 27392 ft | 470 kts | 124° |
| 2026-04-29 10:24 | 45.57608 | 11.17826 | 27688 ft | 473 kts | 123° |
| 2026-04-29 10:25 | 45.55828 | 11.21780 | 27989 ft | 474 kts | 123° |
| 2026-04-29 10:25 | 45.54043 | 11.25752 | 28277 ft | 477 kts | 123° |
| 2026-04-29 10:25 | 45.52250 | 11.29739 | 28532 ft | 479 kts | 123° |
| 2026-04-29 10:25 | 45.50446 | 11.33745 | 28786 ft | 481 kts | 123° |
| 2026-04-29 10:26 | 45.48633 | 11.37760 | 29037 ft | 483 kts | 123° |
| 2026-04-29 10:26 | 45.46810 | 11.41792 | 29285 ft | 485 kts | 123° |
| 2026-04-29 10:26 | 45.44980 | 11.45828 | 29522 ft | 486 kts | 123° |
| 2026-04-29 10:26 | 45.43139 | 11.49877 | 29779 ft | 487 kts | 123° |
| 2026-04-29 10:27 | 45.39456 | 11.57959 | 30414 ft | 486 kts | 123° |
| 2026-04-29 10:27 | 45.37617 | 11.61987 | 30679 ft | 485 kts | 124° |
| 2026-04-29 10:27 | 45.35781 | 11.66010 | 30971 ft | 484 kts | 124° |
| 2026-04-29 10:28 | 45.33947 | 11.70025 | 31260 ft | 484 kts | 124° |
| 2026-04-29 10:28 | 45.32112 | 11.74038 | 31512 ft | 484 kts | 124° |
| 2026-04-29 10:28 | 45.30277 | 11.78047 | 31795 ft | 484 kts | 124° |
| 2026-04-29 10:28 | 45.28445 | 11.82048 | 32088 ft | 483 kts | 124° |
| 2026-04-29 10:29 | 45.26612 | 11.86045 | 32369 ft | 483 kts | 124° |
| 2026-04-29 10:29 | 45.24778 | 11.90032 | 32654 ft | 482 kts | 124° |
| 2026-04-29 10:29 | 45.22946 | 11.94006 | 32945 ft | 481 kts | 124° |
| 2026-04-29 10:29 | 45.21114 | 11.97971 | 33232 ft | 480 kts | 124° |
| 2026-04-29 10:30 | 45.19284 | 12.01927 | 33535 ft | 480 kts | 125° |
| 2026-04-29 10:30 | 45.17455 | 12.05879 | 33782 ft | 480 kts | 125° |
| 2026-04-29 10:30 | 45.15624 | 12.09832 | 34042 ft | 480 kts | 125° |
| 2026-04-29 10:30 | 45.13796 | 12.13779 | 34293 ft | 479 kts | 125° |
| 2026-04-29 10:31 | 45.11965 | 12.17722 | 34507 ft | 479 kts | 125° |
| 2026-04-29 10:31 | 45.10135 | 12.21652 | 34745 ft | 478 kts | 125° |
| 2026-04-29 10:31 | 45.08450 | 12.25716 | 34970 ft | 479 kts | 117° |
| 2026-04-29 10:31 | 45.07209 | 12.30094 | 35168 ft | 481 kts | 107° |
| 2026-04-29 10:32 | 45.06453 | 12.34693 | 35373 ft | 481 kts | 98° |
| 2026-04-29 10:32 | 45.05983 | 12.39385 | 35526 ft | 482 kts | 98° |
| 2026-04-29 10:32 | 45.05502 | 12.44087 | 35680 ft | 483 kts | 98° |
| 2026-04-29 10:32 | 45.05010 | 12.48792 | 35851 ft | 484 kts | 98° |
| 2026-04-29 10:33 | 45.04514 | 12.53500 | 36033 ft | 484 kts | 98° |
| 2026-04-29 10:33 | 45.04016 | 12.58206 | 36212 ft | 484 kts | 98° |
| 2026-04-29 10:33 | 45.03519 | 12.62915 | 36391 ft | 484 kts | 98° |
| 2026-04-29 10:33 | 45.03023 | 12.67620 | 36556 ft | 484 kts | 98° |
| 2026-04-29 10:34 | 45.02526 | 12.72327 | 36730 ft | 484 kts | 98° |
| 2026-04-29 10:34 | 45.02026 | 12.77034 | 36883 ft | 485 kts | 98° |
| 2026-04-29 10:34 | 45.01524 | 12.81748 | 37044 ft | 485 kts | 98° |
| 2026-04-29 10:35 | 45.00520 | 12.91198 | 37088 ft | 487 kts | 98° |
| 2026-04-29 10:35 | 44.99504 | 13.00674 | 37094 ft | 488 kts | 98° |
| 2026-04-29 10:36 | 44.98475 | 13.10141 | 37093 ft | 488 kts | 98° |
| 2026-04-29 10:36 | 44.97442 | 13.19625 | 37089 ft | 489 kts | 98° |
| 2026-04-29 10:37 | 44.96394 | 13.29116 | 37092 ft | 489 kts | 98° |
| 2026-04-29 10:37 | 44.95332 | 13.38601 | 37097 ft | 489 kts | 99° |
| 2026-04-29 10:38 | 44.94264 | 13.48014 | 37101 ft | 489 kts | 98° |
| 2026-04-29 10:38 | 44.93187 | 13.57493 | 37093 ft | 489 kts | 98° |
| 2026-04-29 10:39 | 44.92109 | 13.66981 | 37101 ft | 490 kts | 98° |
| 2026-04-29 10:39 | 44.91020 | 13.76467 | 37107 ft | 490 kts | 99° |
| 2026-04-29 10:40 | 44.89767 | 13.85911 | 37116 ft | 490 kts | 107° |
| 2026-04-29 10:40 | 44.86960 | 13.94604 | 37104 ft | 487 kts | 126° |
| 2026-04-29 10:41 | 44.82660 | 14.01885 | 37098 ft | 483 kts | 136° |
| 2026-04-29 10:41 | 44.78090 | 14.08846 | 37084 ft | 484 kts | 135° |
| 2026-04-29 10:42 | 44.73519 | 14.15802 | 37085 ft | 484 kts | 136° |
| 2026-04-29 10:42 | 44.68938 | 14.22760 | 37079 ft | 485 kts | 136° |
| 2026-04-29 10:43 | 44.64350 | 14.29721 | 37078 ft | 485 kts | 136° |
| 2026-04-29 10:43 | 44.62053 | 14.33196 | 36878 ft | 486 kts | 136° |
| 2026-04-29 10:43 | 44.59755 | 14.36667 | 36614 ft | 485 kts | 136° |
| 2026-04-29 10:43 | 44.57457 | 14.40134 | 36354 ft | 485 kts | 136° |
| 2026-04-29 10:44 | 44.55158 | 14.43592 | 36100 ft | 485 kts | 136° |
| 2026-04-29 10:44 | 44.52837 | 14.47028 | 35833 ft | 485 kts | 139° |
| 2026-04-29 10:44 | 44.50319 | 14.50160 | 35344 ft | 484 kts | 143° |
| 2026-04-29 10:44 | 44.47761 | 14.53221 | 34852 ft | 484 kts | 143° |
| 2026-04-29 10:45 | 44.45197 | 14.56274 | 34372 ft | 484 kts | 143° |
| 2026-04-29 10:45 | 44.42628 | 14.59324 | 33840 ft | 483 kts | 143° |
| 2026-04-29 10:45 | 44.40929 | 14.61334 | 33479 ft | 483 kts | 143° |
| 2026-04-29 10:45 | 44.37502 | 14.65390 | 32765 ft | 483 kts | 143° |
| 2026-04-29 10:46 | 44.35806 | 14.67399 | 32410 ft | 483 kts | 143° |
| 2026-04-29 10:46 | 44.33242 | 14.70439 | 31769 ft | 484 kts | 142° |
| 2026-04-29 10:46 | 44.30682 | 14.73480 | 31138 ft | 484 kts | 142° |
| 2026-04-29 10:46 | 44.28114 | 14.76525 | 30525 ft | 485 kts | 142° |
| 2026-04-29 10:47 | 44.25535 | 14.79575 | 29874 ft | 486 kts | 142° |
| 2026-04-29 10:47 | 44.22962 | 14.82608 | 29173 ft | 483 kts | 142° |
| 2026-04-29 10:47 | 44.20408 | 14.85614 | 28477 ft | 479 kts | 142° |
| 2026-04-29 10:47 | 44.17875 | 14.88594 | 27809 ft | 474 kts | 142° |
| 2026-04-29 10:48 | 44.15372 | 14.91542 | 27158 ft | 469 kts | 142° |
| 2026-04-29 10:48 | 44.12894 | 14.94459 | 26522 ft | 464 kts | 142° |
| 2026-04-29 10:48 | 44.10436 | 14.97346 | 25902 ft | 460 kts | 142° |
| 2026-04-29 10:48 | 44.07998 | 15.00202 | 25289 ft | 456 kts | 142° |
| 2026-04-29 10:49 | 44.05577 | 15.03035 | 24697 ft | 453 kts | 142° |
| 2026-04-29 10:49 | 44.03177 | 15.05840 | 24119 ft | 449 kts | 142° |
| 2026-04-29 10:49 | 44.00795 | 15.08623 | 23521 ft | 446 kts | 142° |
| 2026-04-29 10:49 | 43.98435 | 15.11385 | 22826 ft | 442 kts | 142° |
| 2026-04-29 10:50 | 43.96090 | 15.14125 | 22254 ft | 437 kts | 142° |
| 2026-04-29 10:50 | 43.93776 | 15.16826 | 21733 ft | 433 kts | 142° |
| 2026-04-29 10:50 | 43.91497 | 15.19525 | 21215 ft | 429 kts | 142° |
| 2026-04-29 10:50 | 43.89259 | 15.22238 | 20709 ft | 425 kts | 141° |
| 2026-04-29 10:51 | 43.87055 | 15.24950 | 20302 ft | 422 kts | 141° |
| 2026-04-29 10:51 | 43.84872 | 15.27652 | 19932 ft | 420 kts | 141° |
| 2026-04-29 10:51 | 43.82702 | 15.30332 | 19569 ft | 417 kts | 141° |
| 2026-04-29 10:51 | 43.80533 | 15.32998 | 19216 ft | 416 kts | 141° |
| 2026-04-29 10:52 | 43.78368 | 15.35642 | 18852 ft | 414 kts | 141° |
| 2026-04-29 10:52 | 43.76210 | 15.38266 | 18497 ft | 412 kts | 141° |
| 2026-04-29 10:52 | 43.74063 | 15.40872 | 18116 ft | 409 kts | 141° |
| 2026-04-29 10:52 | 43.71930 | 15.43460 | 17715 ft | 407 kts | 141° |
| 2026-04-29 10:53 | 43.69811 | 15.46029 | 17323 ft | 404 kts | 141° |
| 2026-04-29 10:53 | 43.67701 | 15.48580 | 16933 ft | 401 kts | 141° |
| 2026-04-29 10:53 | 43.65607 | 15.51111 | 16549 ft | 399 kts | 141° |
| 2026-04-29 10:53 | 43.63556 | 15.53587 | 16170 ft | 396 kts | 141° |
| 2026-04-29 10:54 | 43.61488 | 15.56081 | 15791 ft | 393 kts | 141° |
| 2026-04-29 10:54 | 43.59436 | 15.58558 | 15425 ft | 391 kts | 141° |
| 2026-04-29 10:54 | 43.57396 | 15.61021 | 15061 ft | 388 kts | 141° |
| 2026-04-29 10:54 | 43.55345 | 15.63493 | 14689 ft | 384 kts | 141° |
| 2026-04-29 10:55 | 43.53351 | 15.65894 | 14336 ft | 378 kts | 141° |
| 2026-04-29 10:55 | 43.51389 | 15.68255 | 13969 ft | 372 kts | 141° |
| 2026-04-29 10:55 | 43.49476 | 15.70554 | 13587 ft | 367 kts | 141° |
| 2026-04-29 10:55 | 43.47565 | 15.72846 | 13191 ft | 362 kts | 141° |
| 2026-04-29 10:56 | 43.45680 | 15.75104 | 12801 ft | 357 kts | 141° |
| 2026-04-29 10:56 | 43.43820 | 15.77329 | 12411 ft | 352 kts | 141° |
| 2026-04-29 10:56 | 43.41986 | 15.79517 | 12030 ft | 347 kts | 141° |
| 2026-04-29 10:56 | 43.40177 | 15.81674 | 11721 ft | 340 kts | 141° |
| 2026-04-29 10:57 | 43.38427 | 15.83761 | 11595 ft | 327 kts | 141° |
| 2026-04-29 10:57 | 43.36737 | 15.85778 | 11467 ft | 316 kts | 141° |
| 2026-04-29 10:57 | 43.35106 | 15.87722 | 11325 ft | 306 kts | 141° |
| 2026-04-29 10:57 | 43.33512 | 15.89620 | 11062 ft | 301 kts | 141° |
| 2026-04-29 10:58 | 43.32019 | 15.91615 | 10757 ft | 300 kts | 129° |
| 2026-04-29 10:58 | 43.31052 | 15.94131 | 10444 ft | 299 kts | 107° |
| 2026-04-29 10:58 | 43.30837 | 15.96952 | 10118 ft | 299 kts | 84° |
| 2026-04-29 10:58 | 43.31381 | 15.99686 | 9757 ft | 297 kts | 69° |
| 2026-04-29 10:59 | 43.32123 | 16.02329 | 9344 ft | 297 kts | 69° |
| 2026-04-29 10:59 | 43.32868 | 16.04963 | 8959 ft | 295 kts | 69° |
| 2026-04-29 10:59 | 43.33610 | 16.07585 | 8578 ft | 293 kts | 69° |
| 2026-04-29 10:59 | 43.34343 | 16.10188 | 8196 ft | 292 kts | 69° |
| 2026-04-29 11:00 | 43.35072 | 16.12777 | 7783 ft | 288 kts | 69° |
| 2026-04-29 11:00 | 43.35791 | 16.15330 | 7141 ft | 286 kts | 69° |
| 2026-04-29 11:00 | 43.36479 | 16.17787 | 6969 ft | 264 kts | 70° |
| 2026-04-29 11:00 | 43.37115 | 16.20061 | 6740 ft | 250 kts | 70° |
| 2026-04-29 11:01 | 43.37735 | 16.22285 | 6227 ft | 249 kts | 70° |
| 2026-04-29 11:01 | 43.38352 | 16.24500 | 5759 ft | 247 kts | 70° |
| 2026-04-29 11:01 | 43.38948 | 16.26618 | 5564 ft | 227 kts | 69° |
| 2026-04-29 11:01 | 43.39789 | 16.28309 | 5402 ft | 204 kts | 41° |
| 2026-04-29 11:02 | 43.40838 | 16.29519 | 5051 ft | 194 kts | 41° |
| 2026-04-29 11:02 | 43.41852 | 16.30723 | 4585 ft | 191 kts | 43° |
| 2026-04-29 11:02 | 43.42841 | 16.31920 | 4129 ft | 188 kts | 43° |
| 2026-04-29 11:02 | 43.43811 | 16.33097 | 3686 ft | 184 kts | 44° |
| 2026-04-29 11:03 | 43.44765 | 16.34246 | 3186 ft | 180 kts | 45° |
| 2026-04-29 11:03 | 43.45692 | 16.35357 | 2729 ft | 174 kts | 44° |
| 2026-04-29 11:03 | 43.46580 | 16.36431 | 2427 ft | 168 kts | 44° |
| 2026-04-29 11:03 | 43.47455 | 16.37496 | 2044 ft | 167 kts | 44° |
| 2026-04-29 11:04 | 43.48262 | 16.38576 | 2014 ft | 160 kts | 49° |
| 2026-04-29 11:04 | 43.49081 | 16.39628 | 2009 ft | 162 kts | 34° |
| 2026-04-29 11:04 | 43.50158 | 16.40096 | 1904 ft | 166 kts | 1° |
| 2026-04-29 11:04 | 43.51291 | 16.39864 | 1758 ft | 164 kts | 346° |
| 2026-04-29 11:05 | 43.52394 | 16.39445 | 1540 ft | 168 kts | 343° |
| 2026-04-29 11:05 | 43.53502 | 16.38937 | 1314 ft | 167 kts | 338° |
| 2026-04-29 11:05 | 43.54460 | 16.38155 | 1184 ft | 157 kts | 320° |
| 2026-04-29 11:05 | 43.55189 | 16.37064 | 1055 ft | 154 kts | 306° |
| 2026-04-29 11:06 | 43.55723 | 16.35775 | 896 ft | 157 kts | 289° |
| 2026-04-29 11:06 | 43.55869 | 16.34302 | 738 ft | 156 kts | 262° |
| 2026-04-29 11:06 | 43.55537 | 16.32882 | 488 ft | 156 kts | 239° |
| 2026-04-29 11:06 | 43.54925 | 16.31662 | 246 ft | 155 kts | 230° |
| 2026-04-29 11:07 | 43.54285 | 16.30499 | 57 ft | 143 kts | 230° |
| 2026-04-29 11:07 | 43.53812 | 16.29646 | 71 ft | 55 kts | 233° |
| 2026-04-29 11:07 | 43.53715 | 16.29480 | 81 ft | 10 kts | 202° |
| 2026-04-29 11:07 | 43.53700 | 16.29509 | 73 ft | 4 kts | 90° |
| 2026-04-29 11:08 | 43.53696 | 16.29562 | 74 ft | 10 kts | 111° |
| 2026-04-29 11:08 | 43.53619 | 16.29598 | 63 ft | 9 kts | 156° |
| 2026-04-29 11:08 | 43.53567 | 16.29649 | 67 ft | 9 kts | 140° |
| 2026-04-29 11:08 | 43.53551 | 16.29706 | 67 ft | 5 kts | 103° |
| 2026-04-29 11:09 | 43.53546 | 16.29735 | 61 ft | 0 kts | 103° |
| 2026-04-29 11:09 | 43.53546 | 16.29739 | 62 ft | 2 kts | 103° |
| 2026-04-29 11:09 | 43.53545 | 16.29742 | 62 ft | 0 kts | 103° |